Opa-locka Executive Airport
KOPF : now visible

Airfield :











YOU CAN JOIN US ON...

 
LOGIN :

Register | Disclaimer

   EN    FR    IT 

 









Legend :    VFR   Marginal VFR   IFR   Intensive IFR   Very Intensive IFR
Visi :
Ceiling :
>= 8 km
>= 3000ft
5 to 8 km
1000 to 3000 ft
1500m to 5 km
500 to 1000 ft
800 to 1500m
200 to 500 ft
< 800m
< 200 ft
Symbols :   Thunderstorms  Fog  Heavy snow  Heavy precipitations  Wind > 20 kt







- Airport Elevation : 8 ft


KOPF - Opa-locka Executive

CURRENT METAR :
  • 191156Z 22011KT 10SM SCT020 BKN050 24/21 A2995 RMK AO2 RAE54 P0000 T02390206

EXPIRED METARs :
  • 191153Z 22012KT 10SM -RA OVC065 24/21 A2995 RMK AO2 RAB31 SLP141 P0000 60005 70006 T02390206 10267 20239 53016
  • 191053Z 20013G20KT 10SM FEW023 BKN050 OVC100 24/22 A2991 RMK AO2 PK WND 20026/1015 RAB0955E34 SLP130 P0004 T02440217
  • 191023Z AUTO 20015G26KT 8SM -RA FEW024 BKN031 OVC055 24/22 A2990 RMK AO2 PK WND 20026/1015 RAB0955 P0003 T02440217
  • 191003Z AUTO 17018G22KT 10SM -RA BKN025 BKN039 OVC095 26/22 A2989 RMK AO2 RAB0955 P0000 T02610217
  • 190953Z AUTO 19017G27KT 10SM SCT025 BKN055 OVC095 27/22 A2989 RMK AO2 PK WND 18027/0948 RAB21E34 SLP123 P0001 T02670217

TAF KOPF
Valid from the 19 at 12:00 until the 20 at 12:00 UTC


191150Z 1912/2012 20015G25KT P6SM VCSH SCT020 BKN035 OVC080
TEMPO 1912/1915 4SM SHRA BKN025
FM191700 20020G30KT P6SM VCTS SCT025CB BKN050
FM200000 23012G22KT P6SM VCTS BKN025CB OVC060
TEMPO 2001/2004 25025G35KT 4SM TSRA BKN025CB
FM200500 29010KT P6SM SCT030 BKN100
KZMA FIR / North America



MET'MAP, your aeronautical weather chart ! - Copyright ORBIFLY December 2007 - Disclaimer

ORBIFLY MET'MAP TEAM :

Programming & Development : Alexandra Zaïnal
Concept & Development : Baudouin d'Aumeries
Co-Development & Prog : Marc-Olivier Méhu
Technical & hardware support : Manuel Goepfert

Contact : metmap@orbifly.com




SOURCES & CREDITS :

   NOAA       Earth
Advisory